Time;durP1;ratioP1;P1;durP2;ratioP2;P2;SDS_P1;SDS_P2;PMS_P1;PMS_P2;Temp;Humidity;BMP_temperature;BMP_pressure;BME280_temperature;BME280_humidity;BME280_pressure;Samples;Min_cycle;Max_cycle;Signal;HPM_P1;HPM_P2
2022/06/18 00:00:22;;;;;;;7.80;4.50;;;;;;;19.32;100.00;101431.66;5304780;28;20038;-92
2022/06/18 00:02:56;;;;;;;3.72;3.35;;;;;;;19.55;100.00;101519.19;5283391;28;20043;-92
2022/06/18 00:05:27;;;;;;;5.80;4.55;;;;;;;21.17;100.00;101762.28;5277120;28;20165;-92
2022/06/18 00:07:58;;;;;;;3.70;3.42;;;;;;;19.95;100.00;101562.63;5272792;28;20024;-93
2022/06/18 00:10:30;;;;;;;4.07;3.88;;;;;;;20.33;100.00;101653.81;5281748;28;20083;-92
2022/06/18 00:13:41;;;;;;;4.50;4.07;;;;;;;21.05;100.00;101772.16;5299588;28;20107;-91
2022/06/18 00:16:18;;;;;;;4.30;4.10;;;;;;;21.01;100.00;101771.13;5279677;27;20170;-91
2022/06/18 00:18:49;;;;;;;8.77;4.45;;;;;;;20.98;100.00;101761.56;5287225;28;20026;-93
2022/06/18 00:21:22;;;;;;;4.53;4.32;;;;;;;19.64;100.00;101551.38;5293435;28;20031;-92
2022/06/18 00:23:52;;;;;;;3.40;3.22;;;;;;;19.37;100.00;101521.94;5311520;27;20012;-92
2022/06/18 00:26:23;;;;;;;4.40;4.10;;;;;;;19.70;100.00;101585.81;5285470;28;20038;-93
2022/06/18 00:28:53;;;;;;;4.20;4.00;;;;;;;19.55;100.00;101563.03;5292715;28;20025;-93
2022/06/18 00:31:24;;;;;;;11.02;5.68;;;;;;;19.88;100.00;101620.59;5269270;28;20086;-93
2022/06/18 00:33:54;;;;;;;4.70;4.40;;;;;;;19.92;100.00;101631.78;5263145;28;20032;-93
2022/06/18 00:36:26;;;;;;;4.80;4.60;;;;;;;19.70;100.00;101597.59;5271808;28;20028;-93
2022/06/18 00:38:56;;;;;;;4.00;3.70;;;;;;;19.35;100.00;101533.19;5295284;28;20027;-92
2022/06/18 00:41:27;;;;;;;6.20;3.65;;;;;;;20.32;100.00;101710.59;5279361;28;20027;-92
2022/06/18 00:44:03;;;;;;;4.47;4.20;;;;;;;19.04;100.00;101480.03;5284143;28;20063;-91
2022/06/18 00:46:45;;;;;;;4.47;4.25;;;;;;;20.67;100.00;101733.88;5292083;28;20079;-92
2022/06/18 00:49:40;;;;;;;4.50;3.95;;;;;;;20.66;100.00;101729.50;5290155;28;20062;-91
2022/06/18 00:52:21;;;;;;;5.15;4.40;;;;;;;20.36;100.00;101681.44;5261850;28;20028;-91
2022/06/18 00:55:10;;;;;;;4.85;4.45;;;;;;;20.59;100.00;101729.06;5261996;28;20119;-92
2022/06/18 00:58:14;;;;;;;3.88;3.70;;;;;;;20.57;100.00;101728.56;5277293;28;20031;-91
2022/06/18 01:00:47;;;;;;;4.50;4.20;;;;;;;20.53;100.00;101724.78;5281056;28;20036;-92
2022/06/18 01:03:22;;;;;;;4.80;4.55;;;;;;;20.14;100.00;101662.09;5288502;28;20059;-94
2022/06/18 01:05:55;;;;;;;4.72;4.53;;;;;;;18.50;100.00;101393.78;5291472;27;20019;-93
2022/06/18 01:08:29;;;;;;;6.45;6.00;;;;;;;20.40;100.00;101715.44;5301910;27;20016;-94
2022/06/18 01:11:03;;;;;;;5.82;5.28;;;;;;;19.55;100.00;101571.25;5300092;28;20027;-92
2022/06/18 01:13:37;;;;;;;3.55;3.35;;;;;;;19.80;100.00;101626.75;5291449;28;20020;-93
2022/06/18 01:16:11;;;;;;;5.13;4.82;;;;;;;18.81;100.00;101457.91;5302089;28;20107;-92
2022/06/18 01:18:41;;;;;;;15.75;4.82;;;;;;;19.54;100.00;101597.03;5264391;28;20024;-92
2022/06/18 01:21:29;;;;;;;5.70;5.40;;;;;;;19.52;100.00;101595.69;5278616;28;20030;-92
2022/06/18 01:24:15;;;;;;;6.18;5.80;;;;;;;20.34;100.00;101704.81;5300166;28;20073;-92
2022/06/18 01:26:49;;;;;;;5.53;5.13;;;;;;;20.13;100.00;101672.25;5282025;28;20032;-92
2022/06/18 01:29:39;;;;;;;4.97;4.78;;;;;;;20.30;100.00;101701.03;5279296;28;20020;-93
2022/06/18 01:32:13;;;;;;;5.10;4.70;;;;;;;18.14;100.00;101358.78;5253170;28;20019;-90
2022/06/18 01:34:45;;;;;;;10.55;5.00;;;;;;;20.22;100.00;101703.34;5286592;28;20400;-92
2022/06/18 01:37:17;;;;;;;4.18;3.97;;;;;;;18.99;100.00;101502.03;5304895;28;20031;-92
2022/06/18 01:39:49;;;;;;;4.63;4.43;;;;;;;20.26;100.00;101705.50;5284615;28;20024;-93
2022/06/18 01:42:30;;;;;;;5.38;5.07;;;;;;;20.26;100.00;101724.69;5265201;28;20032;-92
2022/06/18 01:45:23;;;;;;;5.40;4.45;;;;;;;20.22;100.00;101735.44;5265296;28;20062;-92
2022/06/18 01:51:33;;;;;;;5.13;4.93;;;;;;;20.14;100.00;101741.63;5294303;28;20027;-92
2022/06/18 01:54:30;;;;;;;5.18;4.88;;;;;;;18.30;100.00;101408.56;5284494;28;20055;-93
2022/06/18 01:57:19;;;;;;;4.65;4.22;;;;;;;17.96;100.00;101386.06;5268020;28;20141;-92
2022/06/18 01:59:57;;;;;;;5.83;5.50;;;;;;;18.06;100.00;101396.88;5283463;28;20042;-91
2022/06/18 02:02:36;;;;;;;4.80;4.47;;;;;;;18.24;100.00;101431.63;5293748;28;20019;-90
2022/06/18 02:05:15;;;;;;;4.38;4.18;;;;;;;20.06;100.00;101701.16;5288606;28;20055;-93
2022/06/18 02:07:52;;;;;;;5.38;4.97;;;;;;;20.04;100.00;101709.69;5287431;28;20039;-92
2022/06/18 02:10:29;;;;;;;6.15;4.78;;;;;;;18.81;100.00;101504.44;5278431;28;20012;-92
2022/06/18 02:13:06;;;;;;;5.40;5.10;;;;;;;19.14;100.00;101562.00;5297343;28;20020;-91
2022/06/18 02:15:46;;;;;;;4.65;4.43;;;;;;;18.53;100.00;101461.59;5290949;28;20052;-91
2022/06/18 02:18:23;;;;;;;5.03;4.72;;;;;;;19.95;100.00;101727.09;5277574;28;20039;-92
2022/06/18 02:21:04;;;;;;;4.72;4.43;;;;;;;17.82;100.00;101373.13;5290744;28;20466;-92
2022/06/18 02:23:35;;;;;;;5.28;4.97;;;;;;;18.71;100.00;101501.88;5290694;28;20071;-90
2022/06/18 02:26:07;;;;;;;10.15;5.82;;;;;;;19.95;100.00;101686.78;5288660;28;20031;-92
2022/06/18 02:28:41;;;;;;;4.30;4.10;;;;;;;19.50;100.00;101622.53;5277122;28;20020;-91
2022/06/18 02:31:21;;;;;;;4.93;4.63;;;;;;;19.73;100.00;101660.00;5274771;22;20456;-79
2022/06/18 02:33:56;;;;;;;6.28;5.85;;;;;;;19.95;100.00;101694.22;5271985;28;20023;-79
2022/06/18 02:36:35;;;;;;;7.30;5.75;;;;;;;19.95;100.00;101700.50;5272117;28;20516;-79
2022/06/18 02:39:24;;;;;;;7.57;6.28;;;;;;;19.94;100.00;101698.88;5269868;28;20107;-82
2022/06/18 02:42:01;;;;;;;5.97;5.63;;;;;;;19.86;100.00;101685.88;5274563;28;20015;-79
2022/06/18 02:44:32;;;;;;;6.15;4.45;;;;;;;19.82;100.00;101693.88;5283330;28;20036;-78
2022/06/18 02:47:08;;;;;;;4.90;4.50;;;;;;;19.67;100.00;101663.94;5266157;28;20027;-79
2022/06/18 02:49:44;;;;;;;5.43;5.07;;;;;;;19.82;100.00;101682.09;5275205;28;20058;-82
2022/06/18 02:52:14;;;;;;;4.85;4.65;;;;;;;19.79;100.00;101682.69;5268178;28;20024;-81
2022/06/18 02:54:44;;;;;;;5.70;5.22;;;;;;;19.78;100.00;101686.53;5280883;28;20489;-81
2022/06/18 02:57:26;;;;;;;4.43;4.22;;;;;;;19.67;100.00;101668.59;5277026;28;20544;-79
2022/06/18 02:59:57;;;;;;;5.18;4.78;;;;;;;19.54;100.00;101656.50;5287722;28;20492;-82
2022/06/18 03:02:27;;;;;;;5.65;5.07;;;;;;;19.47;100.00;101645.03;5270595;28;20020;-79
2022/06/18 03:04:58;;;;;;;6.82;4.75;;;;;;;19.76;100.00;101696.97;5283094;28;20049;-78
2022/06/18 03:07:28;;;;;;;4.60;4.30;;;;;;;19.59;100.00;101674.78;5291481;28;20024;-79
2022/06/18 03:12:48;;;;;;;6.13;5.70;;;;;;;19.72;100.00;101707.72;5270457;28;20401;-79
2022/06/18 03:15:18;;;;;;;5.03;4.80;;;;;;;19.51;100.00;101677.06;5285074;28;20015;-78
2022/06/18 03:17:49;;;;;;;5.60;5.05;;;;;;;19.63;100.00;101700.47;5274444;28;20027;-80
2022/06/18 03:20:23;;;;;;;5.68;5.28;;;;;;;19.41;100.00;101673.63;5284681;28;20028;-81
2022/06/18 03:22:53;;;;;;;5.68;5.20;;;;;;;19.55;100.00;101696.47;5281795;28;20020;-78
2022/06/18 03:25:24;;;;;;;5.97;5.40;;;;;;;19.47;100.00;101683.41;5275895;28;20080;-78
2022/06/18 03:27:54;;;;;;;6.60;6.18;;;;;;;19.54;100.00;101703.06;5286547;28;20397;-81
2022/06/18 03:30:24;;;;;;;5.10;4.80;;;;;;;19.57;100.00;101696.19;5268979;28;20614;-80
2022/06/18 03:32:55;;;;;;;5.97;5.53;;;;;;;19.50;100.00;101675.44;5281637;28;20393;-80
2022/06/18 03:35:25;;;;;;;5.53;5.07;;;;;;;19.54;100.00;101675.66;5274852;28;20473;-78
2022/06/18 03:37:56;;;;;;;5.80;5.50;;;;;;;19.63;100.00;101689.53;5290718;28;20019;-78
2022/06/18 03:40:27;;;;;;;7.43;6.32;;;;;;;19.55;100.00;101683.59;5282958;28;20016;-79
2022/06/18 03:42:57;;;;;;;6.38;5.88;;;;;;;19.63;100.00;101695.00;5281856;28;20028;-81
2022/06/18 03:45:30;;;;;;;7.00;6.57;;;;;;;19.58;100.00;101693.16;5291005;28;20028;-80
2022/06/18 03:48:01;;;;;;;5.57;5.28;;;;;;;19.55;100.00;101688.25;5254886;28;20028;-79
2022/06/18 03:50:31;;;;;;;5.50;5.03;;;;;;;19.57;100.00;101688.78;5280945;28;20110;-82
2022/06/18 03:53:02;;;;;;;7.32;6.07;;;;;;;19.59;100.00;101686.56;5269220;28;20107;-82
2022/06/18 03:55:32;;;;;;;10.07;6.13;;;;;;;19.55;100.00;101678.09;5286957;28;20419;-79
2022/06/18 03:58:04;;;;;;;7.18;6.57;;;;;;;19.55;100.00;101672.63;5287770;28;20016;-79
2022/06/18 04:00:35;;;;;;;7.25;6.38;;;;;;;19.71;100.00;101692.38;5268043;28;20044;-80
2022/06/18 04:03:06;;;;;;;6.78;6.13;;;;;;;19.78;100.00;101686.53;5269488;28;20035;-79
2022/06/18 04:05:39;;;;;;;9.90;7.65;;;;;;;19.59;100.00;101661.09;5285984;28;20028;-79
2022/06/18 04:08:15;;;;;;;6.97;6.40;;;;;;;19.72;100.00;101680.31;5269812;28;20100;-79
2022/06/18 04:10:45;;;;;;;8.43;7.25;;;;;;;19.87;100.00;101685.56;5268760;28;20050;-80
2022/06/18 04:13:16;;;;;;;10.23;6.45;;;;;;;19.95;100.00;101691.47;5269495;28;20099;-79
2022/06/18 04:15:47;;;;;;;7.25;6.75;;;;;;;19.94;100.00;101682.44;5251274;28;20443;-82
2022/06/18 04:18:18;;;;;;;6.22;5.78;;;;;;;19.95;100.00;101673.09;5269568;28;20058;-79
2022/06/18 04:20:49;;;;;;;6.65;6.18;;;;;;;20.04;100.00;101678.72;5269362;28;20047;-78
2022/06/18 04:23:20;;;;;;;13.40;6.00;;;;;;;20.16;100.00;101690.03;5278485;28;20034;-82
2022/06/18 04:25:50;;;;;;;6.38;5.93;;;;;;;20.17;100.00;101683.44;5276152;28;20483;-80
2022/06/18 04:28:21;;;;;;;6.72;6.15;;;;;;;20.13;100.00;101666.78;5293445;28;20133;-80
2022/06/18 04:30:51;;;;;;;8.27;7.68;;;;;;;20.23;100.00;101671.25;5271227;28;20412;-80
2022/06/18 04:33:22;;;;;;;5.35;4.95;;;;;;;20.28;100.00;101673.09;5272947;28;20393;-82
2022/06/18 04:35:54;;;;;;;6.78;6.28;;;;;;;20.51;100.00;101694.09;5253380;28;20027;-79
2022/06/18 04:38:26;;;;;;;6.63;6.13;;;;;;;20.49;100.00;101677.16;5270750;28;20024;-79
2022/06/18 04:40:56;;;;;;;5.95;5.57;;;;;;;20.67;100.00;101692.72;5252630;28;20054;-80
2022/06/18 04:43:27;;;;;;;6.22;5.70;;;;;;;20.62;100.00;101667.28;5270848;28;20083;-78
2022/06/18 04:45:57;;;;;;;5.78;5.38;;;;;;;20.93;100.00;101694.94;5270971;28;20046;-79
2022/06/18 04:48:27;;;;;;;6.32;5.75;;;;;;;20.93;100.00;101683.97;5270787;28;20046;-78
2022/06/18 04:50:58;;;;;;;5.45;5.00;;;;;;;21.03;100.00;101679.09;5269558;28;20046;-81
2022/06/18 04:53:29;;;;;;;6.15;5.75;;;;;;;21.18;100.00;101683.44;5271113;28;20028;-80
2022/06/18 04:55:59;;;;;;;5.90;5.53;;;;;;;21.22;100.00;101681.72;5272034;28;20028;-80
2022/06/18 04:58:30;;;;;;;6.43;5.97;;;;;;;21.22;100.00;101662.50;5270710;28;20457;-79
2022/06/18 05:01:01;;;;;;;7.28;6.80;;;;;;;21.39;100.00;101681.06;5269626;28;20497;-79
2022/06/18 05:03:32;;;;;;;6.78;6.30;;;;;;;21.25;100.00;101648.16;5271173;28;20032;-81
2022/06/18 05:06:02;;;;;;;6.00;5.60;;;;;;;21.53;100.00;101670.88;5275077;28;20061;-80
2022/06/18 05:08:33;;;;;;;9.73;6.18;;;;;;;21.51;100.00;101662.13;5275907;28;20024;-80
2022/06/18 05:11:03;;;;;;;5.97;5.28;;;;;;;21.61;100.00;101659.16;5292704;28;20028;-81
2022/06/18 05:13:33;;;;;;;5.93;5.53;;;;;;;21.62;100.00;101657.22;5276844;28;20038;-80
2022/06/18 05:16:06;;;;;;;7.63;6.88;;;;;;;21.89;100.00;101692.84;5276617;28;20023;-81
2022/06/18 05:18:44;;;;;;;6.93;6.13;;;;;;;21.95;100.00;101682.50;5294749;28;20485;-81
2022/06/18 05:21:14;;;;;;;7.25;6.75;;;;;;;21.77;100.00;101643.09;5297437;28;20012;-81
2022/06/18 05:23:45;;;;;;;7.30;6.80;;;;;;;22.06;100.00;101675.69;5299396;28;20036;-81
2022/06/18 05:26:15;;;;;;;7.07;6.32;;;;;;;22.17;100.00;101686.13;5290753;28;20028;-81
2022/06/18 05:28:46;;;;;;;6.28;5.88;;;;;;;22.20;100.00;101681.94;5297579;28;20114;-80
2022/06/18 05:31:16;;;;;;;5.80;5.38;;;;;;;22.37;100.00;101690.28;5280513;28;20035;-80
2022/06/18 05:33:46;;;;;;;6.13;5.63;;;;;;;22.42;100.00;101679.13;5296633;28;20487;-80
2022/06/18 05:36:19;;;;;;;5.78;5.30;;;;;;;22.58;100.00;101682.28;5296153;28;20049;-80
2022/06/18 05:38:53;;;;;;;6.85;6.32;;;;;;;22.66;100.00;101678.75;5296244;28;20484;-81
2022/06/18 05:41:23;;;;;;;6.90;6.40;;;;;;;22.74;100.00;101675.25;5294185;28;20027;-80
2022/06/18 05:43:54;;;;;;;5.88;5.43;;;;;;;22.92;100.00;101686.34;5294792;28;20508;-81
2022/06/18 05:46:24;;;;;;;6.60;6.07;;;;;;;22.91;100.00;101660.72;5295680;28;20039;-81
2022/06/18 05:48:55;;;;;;;6.40;5.45;;;;;;;23.13;100.00;101685.41;5296616;28;20019;-81
2022/06/18 05:51:26;;;;;;;5.88;5.38;;;;;;;23.13;100.00;101673.56;5297524;28;20084;-80
2022/06/18 05:53:56;;;;;;;5.80;5.50;;;;;;;23.24;100.00;101667.44;5298283;28;20050;-81
2022/06/18 05:56:27;;;;;;;8.32;6.25;;;;;;;23.31;100.00;101672.50;5298350;28;20027;-81
2022/06/18 05:58:57;;;;;;;8.98;6.60;;;;;;;23.40;100.00;101667.78;5280680;28;20026;-81
2022/06/18 06:01:27;;;;;;;5.90;5.45;;;;;;;23.42;100.00;101664.72;5296691;28;20271;-81
2022/06/18 06:03:58;;;;;;;6.53;5.43;;;;;;;23.52;100.00;101669.91;5299346;28;20057;-81
2022/06/18 06:06:28;;;;;;;8.15;5.95;;;;;;;23.66;100.00;101672.56;5303393;28;20049;-81
2022/06/18 06:08:59;;;;;;;6.45;6.05;;;;;;;23.76;100.00;101675.78;5303294;28;20019;-81
2022/06/18 06:11:29;;;;;;;5.85;5.43;;;;;;;23.83;100.00;101661.50;5299131;28;20055;-80
2022/06/18 06:14:01;;;;;;;6.55;6.00;;;;;;;24.06;100.00;101682.25;5302232;28;20024;-80
2022/06/18 06:16:32;;;;;;;6.40;5.95;;;;;;;24.09;100.00;101658.69;5301730;28;20031;-81
2022/06/18 06:19:03;;;;;;;5.45;5.15;;;;;;;24.32;100.00;101671.16;5296474;28;20079;-81
2022/06/18 06:21:34;;;;;;;5.40;5.00;;;;;;;24.47;100.00;101672.59;5278778;28;20490;-81
2022/06/18 06:24:04;;;;;;;6.85;6.28;;;;;;;24.64;100.00;101672.53;5297165;28;20103;-80
2022/06/18 06:26:35;;;;;;;11.40;7.78;;;;;;;24.66;100.00;101659.19;5297723;28;20024;-79
2022/06/18 06:29:06;;;;;;;6.35;5.65;;;;;;;24.71;100.00;101649.91;5276593;28;20091;-82
2022/06/18 06:31:36;;;;;;;13.73;6.35;;;;;;;24.92;100.00;101668.16;5297022;28;20027;-81
2022/06/18 06:34:07;;;;;;;6.32;5.82;;;;;;;25.24;100.00;101674.19;5297331;28;20024;-81
2022/06/18 06:36:37;;;;;;;6.63;6.05;;;;;;;25.39;100.00;101670.81;5279239;28;20466;-80
2022/06/18 06:39:08;;;;;;;5.95;5.18;;;;;;;25.60;100.00;101679.13;5278292;28;20481;-80
2022/06/18 06:41:38;;;;;;;8.68;5.63;;;;;;;25.83;100.00;101677.63;5298597;28;20504;-79
2022/06/18 06:44:10;;;;;;;6.22;4.90;;;;;;;25.93;100.00;101672.84;5298403;28;20023;-82
2022/06/18 06:46:40;;;;;;;5.07;4.78;;;;;;;26.16;100.00;101680.41;5298635;28;20073;-81
2022/06/18 06:49:11;;;;;;;6.75;5.70;;;;;;;26.24;100.00;101667.63;5280257;28;20023;-82
2022/06/18 06:51:41;;;;;;;9.25;5.22;;;;;;;26.29;100.00;101652.72;5298419;28;20031;-83
2022/06/18 06:54:12;;;;;;;6.28;5.10;;;;;;;26.51;100.00;101674.53;5296619;28;20032;-81
2022/06/18 06:59:31;;;;;;;5.20;4.72;;;;;;;26.71;100.00;101668.06;5297788;28;20039;-81
2022/06/18 07:02:02;;;;;;;6.00;5.60;;;;;;;26.99;100.00;101681.25;5296225;28;20027;-80
2022/06/18 07:04:33;;;;;;;8.02;6.65;;;;;;;27.01;100.00;101668.66;5276683;28;20024;-79
2022/06/18 07:07:03;;;;;;;9.07;5.15;;;;;;;27.28;100.00;101678.22;5297491;28;20059;-81
2022/06/18 07:09:34;;;;;;;5.30;4.80;;;;;;;27.35;100.00;101680.41;5298761;28;20019;-81
2022/06/18 07:12:04;;;;;;;11.77;6.03;;;;;;;27.30;100.00;101650.94;5297959;28;20038;-80
2022/06/18 07:14:36;;;;;;;5.68;5.28;;;;;;;27.46;100.00;101664.88;5278960;28;20036;-81
2022/06/18 07:17:15;;;;;;;7.60;6.82;;;;;;;27.65;100.00;101680.94;5297192;28;20043;-81
2022/06/18 07:19:45;;;;;;;;;;;;;;;27.82;100.00;101677.84;5294031;28;20028;-79
2022/06/18 07:22:16;;;;;;;8.77;5.97;;;;;;;27.82;100.00;101669.50;5293302;28;20438;-79
2022/06/18 07:24:46;;;;;;;7.30;4.75;;;;;;;27.95;100.00;101681.38;5291949;28;20027;-79
2022/06/18 07:27:18;;;;;;;5.25;4.63;;;;;;;28.03;100.00;101659.00;5293146;28;20020;-78
2022/06/18 07:29:48;;;;;;;6.88;4.82;;;;;;;28.13;100.00;101664.03;5292107;28;20037;-78
2022/06/18 07:32:20;;;;;;;10.18;5.65;;;;;;;28.22;100.00;101663.91;5291664;28;20012;-79
2022/06/18 07:34:53;;;;;;;9.30;6.63;;;;;;;28.37;100.00;101676.19;5292570;28;20092;-80
2022/06/18 07:37:24;;;;;;;5.28;4.78;;;;;;;28.40;100.00;101651.28;5276220;28;20126;-81
2022/06/18 07:39:54;;;;;;;8.48;4.43;;;;;;;28.61;97.92;101662.13;5295839;28;20066;-81
2022/06/18 07:42:25;;;;;;;8.32;6.60;;;;;;;28.56;98.89;101634.63;5297179;28;20020;-81
2022/06/18 07:44:55;;;;;;;17.60;4.70;;;;;;;28.85;98.75;101650.84;5296444;28;20028;-80
2022/06/18 07:47:25;;;;;;;11.27;5.68;;;;;;;29.10;99.01;101662.53;5296816;28;20023;-81
2022/06/18 07:49:56;;;;;;;5.38;4.95;;;;;;;29.19;98.88;101643.66;5294279;28;20497;-80
2022/06/18 07:52:26;;;;;;;5.25;4.85;;;;;;;29.29;96.84;101644.25;5295685;28;20024;-81
2022/06/18 07:54:58;;;;;;;4.80;4.50;;;;;;;29.45;96.73;101650.63;5298064;28;20040;-80
2022/06/18 07:57:28;;;;;;;5.10;4.80;;;;;;;29.63;97.79;101650.97;5297979;28;20015;-81
2022/06/18 07:59:59;;;;;;;5.47;5.13;;;;;;;29.68;95.14;101628.41;5297569;28;20086;-80
2022/06/18 08:02:29;;;;;;;4.57;4.28;;;;;;;29.48;93.93;101606.13;5296329;28;20417;-80
2022/06/18 08:04:59;;;;;;;5.45;4.95;;;;;;;29.47;94.79;101585.03;5278715;28;20546;-81
2022/06/18 08:07:30;;;;;;;13.75;6.75;;;;;;;29.81;92.87;101621.50;5278472;28;20051;-81
2022/06/18 08:10:01;;;;;;;16.90;5.88;;;;;;;29.83;95.27;101617.16;5295943;28;20023;-82
2022/06/18 08:12:32;;;;;;;5.97;5.45;;;;;;;30.03;91.77;101629.09;5294158;28;20031;-81
2022/06/18 08:15:05;;;;;;;5.47;5.10;;;;;;;30.05;93.45;101615.59;5295351;28;20023;-81
2022/06/18 08:17:39;;;;;;;4.43;4.18;;;;;;;30.07;90.03;101618.81;5305334;28;20031;-80
2022/06/18 08:20:10;;;;;;;6.15;5.70;;;;;;;30.05;93.08;101618.38;5295774;28;20023;-83
2022/06/18 08:22:44;;;;;;;15.38;6.20;;;;;;;30.07;91.27;101616.03;5295658;28;20028;-82
2022/06/18 08:25:18;;;;;;;12.15;7.00;;;;;;;30.20;93.05;101608.31;5294213;28;20031;-82
2022/06/18 08:27:50;;;;;;;11.70;5.82;;;;;;;30.36;90.83;101619.31;5294551;28;20024;-82
2022/06/18 08:30:20;;;;;;;6.25;4.43;;;;;;;30.34;91.06;101611.34;5294567;28;20092;-82
2022/06/18 08:32:51;;;;;;;5.70;5.00;;;;;;;30.42;89.70;101615.06;5294298;28;20016;-82
2022/06/18 08:35:22;;;;;;;5.63;4.93;;;;;;;30.32;89.18;101582.25;5285143;22;20036;-85
2022/06/18 08:37:53;;;;;;;7.55;4.82;;;;;;;30.37;90.29;101576.34;5283336;28;20188;-85
2022/06/18 08:40:36;;;;;;;7.22;5.78;;;;;;;30.65;88.97;101606.69;5279441;28;20095;-85
2022/06/18 08:43:17;;;;;;;8.93;5.95;;;;;;;30.79;90.13;101610.50;5280675;28;20103;-85
2022/06/18 08:45:51;;;;;;;9.57;6.18;;;;;;;30.76;88.92;101610.44;5280966;28;20111;-85
2022/06/18 08:48:32;;;;;;;6.00;5.38;;;;;;;30.89;88.22;101604.28;5280128;28;20141;-85
2022/06/18 08:51:21;;;;;;;8.38;6.68;;;;;;;30.97;87.49;101582.03;5279648;28;20047;-84
2022/06/18 08:54:11;;;;;;;;;;;;;;;31.05;86.82;101600.50;5280251;28;20024;-84
2022/06/18 08:56:58;;;;;;;5.68;5.28;;;;;;;30.94;87.94;101568.84;5279807;28;19971;-84
2022/06/18 08:59:47;;;;;;;7.18;5.90;;;;;;;31.04;86.83;101590.50;5279868;28;20053;-85
2022/06/18 09:02:18;;;;;;;;;;;;;;;31.28;90.31;101592.03;5281028;28;20496;-84
2022/06/18 09:05:07;;;;;;;4.85;4.55;;;;;;;31.26;88.72;101570.09;5279202;28;19908;-85
2022/06/18 09:08:01;;;;;;;7.03;4.53;;;;;;;31.48;85.80;101566.38;5280005;28;20008;-84
2022/06/18 09:10:44;;;;;;;4.78;4.45;;;;;;;31.64;86.36;101587.69;5281313;28;20485;-85
2022/06/18 09:13:38;;;;;;;4.40;4.00;;;;;;;31.61;84.82;101592.03;5279276;28;20045;-84
2022/06/18 09:16:12;;;;;;;5.32;4.82;;;;;;;31.38;83.77;101583.81;5296381;28;20087;-85
2022/06/18 09:18:50;;;;;;;8.85;6.43;;;;;;;31.39;85.27;101574.25;5279994;28;20028;-84
2022/06/18 09:21:47;;;;;;;7.07;6.00;;;;;;;31.49;83.15;101572.75;5280321;28;20057;-84
2022/06/18 09:24:41;;;;;;;7.70;4.18;;;;;;;31.59;81.08;101560.09;5272718;28;20251;-84
2022/06/18 09:27:26;;;;;;;6.18;4.82;;;;;;;31.83;80.90;101591.09;5279066;28;20043;-84
2022/06/18 09:30:00;;;;;;;9.02;4.07;;;;;;;32.04;83.60;101600.91;5280216;28;20024;-84
2022/06/18 09:32:36;;;;;;;5.47;4.00;;;;;;;32.29;79.93;101589.97;5280075;28;20020;-84
2022/06/18 09:35:13;;;;;;;9.02;5.63;;;;;;;32.35;78.27;101594.00;5280869;28;20057;-84
2022/06/18 09:37:47;;;;;;;5.53;4.85;;;;;;;32.37;79.03;101586.03;5281031;28;20059;-84
2022/06/18 09:40:32;;;;;;;7.10;5.13;;;;;;;32.39;76.19;101575.25;5283140;28;20442;-85
2022/06/18 09:43:21;;;;;;;7.93;5.55;;;;;;;32.55;77.72;101581.38;5288172;28;20028;-85
2022/06/18 09:45:56;;;;;;;6.40;5.53;;;;;;;32.54;77.11;101572.19;5291698;28;20024;-85
2022/06/18 09:48:27;;;;;;;5.80;4.85;;;;;;;32.61;76.31;101576.22;5288875;28;20024;-85
2022/06/18 09:51:04;;;;;;;4.22;3.75;;;;;;;32.77;76.50;101579.53;5291406;28;20084;-84
2022/06/18 09:53:39;;;;;;;6.03;5.22;;;;;;;32.84;75.24;101590.78;5288883;28;20080;-85
2022/06/18 09:56:24;;;;;;;9.52;4.95;;;;;;;32.69;76.69;101550.69;5290054;28;20031;-84
2022/06/18 09:58:59;;;;;;;7.35;4.82;;;;;;;32.84;71.82;101574.81;5285489;28;20028;-85
2022/06/18 10:01:39;;;;;;;6.28;4.90;;;;;;;32.60;72.55;101583.81;5285769;28;20088;-84
2022/06/18 10:07:14;;;;;;;3.90;3.58;;;;;;;32.96;70.22;101582.03;5280390;28;20065;-84
2022/06/18 10:09:53;;;;;;;5.35;4.93;;;;;;;32.91;71.99;101576.03;5283722;28;20027;-83
2022/06/18 10:12:36;;;;;;;5.97;4.35;;;;;;;33.04;71.72;101574.50;5283607;28;20030;-83
2022/06/18 10:15:10;;;;;;;8.32;4.82;;;;;;;32.98;71.89;101573.25;5290716;28;20020;-83
2022/06/18 10:18:02;;;;;;;4.47;4.15;;;;;;;33.20;72.59;101580.59;5287287;28;20024;-84
2022/06/18 10:20:52;;;;;;;11.25;7.32;;;;;;;33.17;74.00;101565.38;5283948;28;20052;-83
2022/06/18 10:23:32;;;;;;;5.43;4.47;;;;;;;33.05;72.46;101564.91;5283192;28;20024;-85
2022/06/18 10:26:36;;;;;;;5.47;4.55;;;;;;;33.09;72.69;101568.53;5281512;28;20035;-84
2022/06/18 10:29:17;;;;;;;3.78;3.47;;;;;;;33.17;70.91;101567.38;5280515;28;20030;-84
2022/06/18 10:32:04;;;;;;;8.60;4.55;;;;;;;32.84;72.43;101551.63;5282108;28;20050;-85
2022/06/18 10:35:23;;;;;;;7.25;4.97;;;;;;;32.85;74.01;101545.63;5281068;28;20055;-85
2022/06/18 10:38:12;;;;;;;6.75;6.22;;;;;;;33.27;73.87;101540.63;5247066;28;20038;-84
2022/06/18 10:40:46;;;;;;;9.70;3.85;;;;;;;33.61;72.62;101538.31;5281610;28;20028;-85
2022/06/18 10:43:31;;;;;;;13.45;6.43;;;;;;;33.42;70.53;101500.28;5280560;28;20020;-85
2022/06/18 10:46:12;;;;;;;5.63;5.07;;;;;;;33.69;71.22;101514.72;5280605;28;20039;-85
2022/06/18 10:48:53;;;;;;;5.80;4.78;;;;;;;33.75;68.59;101525.13;5281625;28;20050;-84
2022/06/18 10:51:27;;;;;;;6.88;6.15;;;;;;;33.46;68.37;101518.69;5280932;28;20051;-84
2022/06/18 10:54:02;;;;;;;6.00;3.40;;;;;;;33.39;69.68;101489.88;5283091;28;20143;-84
2022/06/18 10:56:52;;;;;;;8.02;6.28;;;;;;;33.95;73.32;101519.97;5281760;28;20052;-83
2022/06/18 10:59:35;;;;;;;5.95;5.38;;;;;;;33.73;67.53;101501.53;5283001;28;20030;-84
2022/06/18 11:02:09;;;;;;;5.18;4.30;;;;;;;33.38;68.96;101502.28;5282053;28;20085;-83
2022/06/18 11:04:40;;;;;;;8.55;4.50;;;;;;;33.53;69.58;101496.28;5282299;28;20032;-85
2022/06/18 11:07:12;;;;;;;6.88;6.00;;;;;;;34.00;69.84;101511.16;5280034;28;20817;-84
2022/06/18 11:09:42;;;;;;;7.57;5.60;;;;;;;34.16;68.43;101496.72;5282314;28;20146;-83
2022/06/18 11:12:22;;;;;;;14.38;5.30;;;;;;;34.38;69.54;101461.06;5283355;28;20020;-83
2022/06/18 11:14:54;;;;;;;5.55;4.88;;;;;;;34.69;68.79;101445.31;5282266;28;20024;-84
2022/06/18 11:17:31;;;;;;;14.68;6.22;;;;;;;34.99;67.36;101448.41;5280779;28;20020;-84
2022/06/18 11:20:08;;;;;;;7.35;4.78;;;;;;;35.37;67.94;101468.28;5280414;28;20020;-84
2022/06/18 11:22:38;;;;;;;10.75;4.80;;;;;;;35.46;69.10;101461.00;5281204;28;20047;-85
2022/06/18 11:25:31;;;;;;;3.83;3.50;;;;;;;35.54;66.04;101464.53;5280911;28;20024;-84
2022/06/18 11:28:06;;;;;;;5.25;4.55;;;;;;;35.16;62.78;101449.53;5282135;28;20085;-85
2022/06/18 11:30:45;;;;;;;6.15;3.72;;;;;;;35.02;63.93;101435.56;5282766;28;20088;-85
2022/06/18 11:33:34;;;;;;;7.25;5.22;;;;;;;35.29;64.27;101456.28;5282428;28;20028;-85
2022/06/18 11:36:15;;;;;;;5.90;5.05;;;;;;;35.13;68.27;101445.53;5282477;28;20029;-86
2022/06/18 11:38:57;;;;;;;4.30;4.00;;;;;;;35.11;63.12;101430.31;5281758;28;20028;-85
2022/06/18 11:41:40;;;;;;;12.68;6.70;;;;;;;35.01;64.35;101403.88;5280956;28;20028;-85
2022/06/18 11:44:23;;;;;;;9.05;4.85;;;;;;;35.43;61.75;101444.97;5282240;28;20058;-83
2022/06/18 11:47:16;;;;;;;4.47;4.18;;;;;;;35.62;64.32;101439.97;5281371;28;20020;-84
2022/06/18 11:50:04;;;;;;;5.28;3.72;;;;;;;34.88;59.86;101323.41;5282616;28;20434;-84
2022/06/18 11:52:38;;;;;;;;;;;;;;;35.19;61.21;101434.66;5281745;28;20382;-84
2022/06/18 11:55:23;;;;;;;3.55;3.35;;;;;;;35.52;63.23;101430.41;5298089;28;19926;-85
2022/06/18 11:58:18;;;;;;;6.10;4.45;;;;;;;35.60;61.37;101431.16;5282254;28;20071;-85
2022/06/18 12:00:58;;;;;;;4.60;4.20;;;;;;;35.70;63.77;101405.00;5281764;28;20030;-85
2022/06/18 12:03:42;;;;;;;8.65;5.63;;;;;;;35.54;63.72;101336.09;5282160;28;20032;-85
2022/06/18 12:06:44;;;;;;;6.90;5.22;;;;;;;36.36;62.95;101422.44;5282373;28;20020;-84
2022/06/18 12:09:17;;;;;;;4.60;3.58;;;;;;;36.39;61.33;101403.91;5283201;28;20051;-85